Time;durP1;ratioP1;P1;durP2;ratioP2;P2;SDS_P1;SDS_P2;PMS_P1;PMS_P2;Temp;Humidity;BMP_temperature;BMP_pressure;BME280_temperature;BME280_humidity;BME280_pressure;Samples;Min_cycle;Max_cycle;Signal;HPM_P1;HPM_P2
2022/08/11 00:01:15;;;;;;;6.23;5.50;;;;;;;-141.28;100.00;45418.97;5061348;28;20658;-73
2022/08/11 00:03:45;;;;;;;5.50;5.00;;;;;;;-141.28;100.00;45426.81;5067625;28;20204;-77
2022/08/11 00:06:23;;;;;;;5.87;5.27;;;;;;;-141.28;100.00;45422.91;5070893;28;20231;-76
2022/08/11 00:08:51;;;;;;;6.63;5.17;;;;;;;-141.28;100.00;45411.13;5070143;28;20200;-76
2022/08/11 00:11:21;;;;;;;5.67;5.13;;;;;;;-141.28;100.00;45418.97;5070463;28;20230;-74
2022/08/11 00:13:50;;;;;;;6.43;5.10;;;;;;;-141.28;100.00;45436.63;5069725;28;20201;-75
2022/08/11 00:16:20;;;;;;;5.33;4.83;;;;;;;-141.28;100.00;45411.13;5057804;28;20571;-75
2022/08/11 00:18:50;;;;;;;6.30;4.80;;;;;;;-141.28;100.00;45418.97;5063288;28;20196;-75
2022/08/11 00:21:19;;;;;;;5.60;5.00;;;;;;;-141.28;100.00;45420.94;5061826;28;20227;-74
2022/08/11 00:23:52;;;;;;;7.47;5.30;;;;;;;-141.28;100.00;45417.00;5063960;28;20197;-76
2022/08/11 00:26:20;;;;;;;5.33;4.83;;;;;;;-141.28;100.00;45417.00;5074038;28;20706;-75
2022/08/11 00:28:50;;;;;;;7.30;5.63;;;;;;;-141.28;100.00;45430.72;5074448;28;20223;-75
2022/08/11 00:31:26;;;;;;;7.40;5.30;;;;;;;-141.28;100.00;45432.69;5048686;28;20655;-75
2022/08/11 00:33:55;;;;;;;9.37;5.00;;;;;;;-141.28;100.00;45426.81;5074215;28;20643;-76
2022/08/11 00:36:28;;;;;;;6.37;5.13;;;;;;;-141.28;100.00;45426.81;5055640;28;20541;-75
2022/08/11 00:39:05;;;;;;;6.20;5.23;;;;;;;-141.28;100.00;45418.97;5062664;28;20200;-75
2022/08/11 00:41:38;;;;;;;5.53;5.03;;;;;;;-141.28;100.00;45424.84;5060238;28;20199;-75
2022/08/11 00:44:15;;;;;;;6.10;5.50;;;;;;;-141.28;100.00;45426.81;5073857;28;20224;-74
2022/08/11 00:46:57;;;;;;;6.13;5.53;;;;;;;-141.28;100.00;45426.81;5068061;28;20224;-74
2022/08/11 00:49:37;;;;;;;7.27;5.33;;;;;;;-141.28;100.00;45458.19;5054085;28;20208;-75
2022/08/11 00:52:17;;;;;;;6.40;5.30;;;;;;;-141.28;100.00;45430.72;5054119;28;20302;-74
2022/08/11 00:55:16;;;;;;;7.60;5.50;;;;;;;-141.28;100.00;45411.13;5058722;28;20602;-76
2022/08/11 00:58:20;;;;;;;5.90;5.20;;;;;;;-141.28;100.00;45403.28;5073134;28;20207;-76
2022/08/11 01:01:09;;;;;;;7.70;5.23;;;;;;;-141.28;100.00;45409.19;5059912;28;20200;-75
2022/08/11 01:04:04;;;;;;;6.63;5.27;;;;;;;-141.28;100.00;45403.28;5073599;28;20261;-74
2022/08/11 01:06:48;;;;;;;6.90;5.87;;;;;;;-141.28;100.00;45401.34;5051092;28;20228;-75
2022/08/11 01:09:37;;;;;;;6.43;5.23;;;;;;;-141.28;100.00;45397.41;5053616;28;20262;-74
2022/08/11 01:12:28;;;;;;;6.50;5.40;;;;;;;-141.28;100.00;45385.66;5067038;28;20200;-76
2022/08/11 01:15:24;;;;;;;7.63;5.43;;;;;;;-141.28;100.00;45391.53;5067913;28;20194;-76
2022/08/11 01:18:28;;;;;;;5.90;5.30;;;;;;;-141.28;100.00;45395.47;5027308;28;20208;-75
2022/08/11 01:21:28;;;;;;;6.23;5.63;;;;;;;-141.28;100.00;45395.47;5054144;28;20197;-75
2022/08/11 01:24:38;;;;;;;6.43;5.67;;;;;;;-141.28;100.00;45391.53;5050325;28;20274;-74
2022/08/11 01:27:48;;;;;;;6.33;5.63;;;;;;;-141.28;100.00;45391.53;5049492;28;20227;-75
2022/08/11 01:30:47;;;;;;;6.53;5.60;;;;;;;-141.28;100.00;45393.50;5046565;28;20189;-74
2022/08/11 01:34:14;;;;;;;6.37;5.77;;;;;;;-141.28;100.00;45418.97;5042943;28;20201;-75
2022/08/11 01:37:25;;;;;;;7.27;6.10;;;;;;;-141.28;100.00;45417.00;5053094;28;20209;-76
2022/08/11 01:40:30;;;;;;;8.53;5.60;;;;;;;-141.28;100.00;45418.97;5021125;28;20262;-76
2022/08/11 01:46:01;;;;;;;6.13;5.53;;;;;;;-141.28;100.00;45432.69;5054142;28;20243;-74
2022/08/11 01:48:40;;;;;;;8.40;5.90;;;;;;;-141.28;100.00;45438.56;5053859;28;20209;-76
2022/08/11 01:51:29;;;;;;;8.30;5.83;;;;;;;-141.28;100.00;45434.66;5053517;28;20254;-75
2022/08/11 01:54:04;;;;;;;9.53;5.57;;;;;;;-141.28;100.00;45444.47;5053702;28;20533;-74
2022/08/11 01:56:45;;;;;;;6.13;5.53;;;;;;;-141.28;100.00;45442.50;5054472;28;20204;-74
2022/08/11 01:59:18;;;;;;;7.00;5.70;;;;;;;-141.28;100.00;45434.66;5052753;28;20200;-76
2022/08/11 02:02:44;;;;;;;6.23;5.63;;;;;;;-141.28;100.00;45426.81;5040113;28;20278;-75
2022/08/11 02:05:22;;;;;;;8.33;5.70;;;;;;;-141.28;100.00;45430.72;5052634;28;20203;-74
2022/08/11 02:08:00;;;;;;;5.97;5.37;;;;;;;-141.28;100.00;45446.41;5052828;28;20224;-75
2022/08/11 02:13:35;;;;;;;6.57;5.97;;;;;;;-141.28;100.00;45454.25;5042986;28;20726;-74
2022/08/11 02:16:16;;;;;;;7.20;5.77;;;;;;;-141.28;100.00;45454.25;5053650;28;20571;-74
2022/08/11 02:24:34;;;;;;;10.17;5.90;;;;;;;-141.28;100.00;45469.94;5042216;28;20212;-75
2022/08/11 02:27:06;;;;;;;8.57;6.33;;;;;;;-141.28;100.00;45485.63;5054199;28;20250;-74
2022/08/11 02:29:47;;;;;;;7.60;6.53;;;;;;;-141.28;100.00;45481.69;5053653;28;20217;-74
2022/08/11 02:35:19;;;;;;;11.03;6.87;;;;;;;-141.28;100.00;45505.22;5071355;28;20269;-78
2022/08/11 02:37:53;;;;;;;6.97;6.27;;;;;;;-141.28;100.00;45454.25;5060845;28;20207;-75
2022/08/11 02:40:31;;;;;;;9.43;6.90;;;;;;;-141.28;100.00;45456.22;5071653;28;20655;-75
2022/08/11 02:43:27;;;;;;;9.13;7.43;;;;;;;-141.28;100.00;45434.66;5072350;28;20231;-75
2022/08/11 02:46:06;;;;;;;9.80;7.00;;;;;;;-141.28;100.00;45430.72;5050104;28;20219;-75
2022/08/11 02:51:39;;;;;;;7.90;6.80;;;;;;;-141.28;100.00;45446.41;5070588;28;20519;-74
2022/08/11 02:54:15;;;;;;;7.37;6.50;;;;;;;-141.28;100.00;45440.53;5070982;28;20204;-75
2022/08/11 02:56:51;;;;;;;8.37;6.87;;;;;;;-141.28;100.00;45438.56;5070586;28;20207;-74
2022/08/11 03:02:30;;;;;;;10.03;7.07;;;;;;;-141.28;100.00;45428.78;5052511;28;20270;-76
2022/08/11 03:05:06;;;;;;;8.13;6.30;;;;;;;-141.28;100.00;45422.91;5076629;28;20206;-75
2022/08/11 03:07:42;;;;;;;7.27;6.13;;;;;;;-141.28;100.00;45420.94;5071991;28;20223;-76
2022/08/11 03:10:18;;;;;;;9.90;6.67;;;;;;;-141.28;100.00;45395.47;5064521;28;20203;-74
2022/08/11 03:18:34;;;;;;;6.93;6.23;;;;;;;-141.28;100.00;45401.34;5060632;28;20188;-76
2022/08/11 03:21:13;;;;;;;7.77;6.10;;;;;;;-141.28;100.00;45395.47;5057808;28;20682;-77
2022/08/11 03:23:51;;;;;;;14.07;7.30;;;;;;;-141.28;100.00;45442.50;5052355;28;20193;-77
2022/08/11 03:26:26;;;;;;;13.77;6.70;;;;;;;-141.28;100.00;45458.19;5051589;28;20227;-76
2022/08/11 03:29:04;;;;;;;13.90;6.90;;;;;;;-141.28;100.00;45432.69;5051457;28;20221;-75
2022/08/11 03:31:37;;;;;;;10.13;6.90;;;;;;;-141.28;100.00;45446.41;5043774;28;20196;-77
2022/08/11 03:34:10;;;;;;;12.63;7.20;;;;;;;-141.28;100.00;45438.56;5070018;28;20196;-76
2022/08/11 03:43:29;;;;;;;8.57;7.53;;;;;;;-141.28;100.00;45424.84;5070206;28;20238;-75
2022/08/11 03:46:04;;;;;;;11.17;7.33;;;;;;;-141.28;100.00;45405.25;5070337;28;20250;-75
2022/08/11 03:48:42;;;;;;;12.30;8.23;;;;;;;-141.28;100.00;45368.03;5069512;28;20195;-75
2022/08/11 03:51:21;;;;;;;8.67;6.97;;;;;;;-141.28;100.00;45368.03;5073863;28;20196;-75
2022/08/11 03:54:00;;;;;;;8.87;7.37;;;;;;;-141.28;100.00;45356.25;5050100;28;20200;-75
2022/08/11 03:57:09;;;;;;;11.67;6.80;;;;;;;-141.28;100.00;45346.47;5061265;28;20231;-76
2022/08/11 04:00:17;;;;;;;7.90;7.10;;;;;;;-141.28;100.00;45360.19;5074226;28;20196;-75
2022/08/11 04:03:26;;;;;;;9.60;7.90;;;;;;;-141.28;100.00;45356.25;5073591;28;20581;-77
2022/08/11 04:06:40;;;;;;;16.90;8.83;;;;;;;-141.28;100.00;45340.59;5074145;28;20200;-79
2022/08/11 04:09:45;;;;;;;9.30;7.57;;;;;;;-141.28;100.00;45326.84;5061134;28;20197;-75
2022/08/11 04:12:37;;;;;;;12.57;8.03;;;;;;;-141.28;100.00;45293.53;5058795;28;20539;-75
2022/08/11 04:18:44;;;;;;;8.93;7.10;;;;;;;-141.28;100.00;45311.19;5050433;28;20207;-74
2022/08/11 04:21:26;;;;;;;10.57;7.53;;;;;;;-141.28;100.00;45332.75;5055895;28;20199;-76
2022/08/11 04:24:09;;;;;;;9.27;6.40;;;;;;;-141.28;100.00;45354.31;5072837;28;20200;-75
2022/08/11 04:27:07;;;;;;;7.97;6.50;;;;;;;-141.28;100.00;45395.47;5073635;28;20224;-77
2022/08/11 04:29:59;;;;;;;8.40;6.93;;;;;;;-141.28;100.00;45428.78;5050227;28;20293;-75
2022/08/11 04:32:48;;;;;;;11.47;7.17;;;;;;;-141.28;100.00;45450.34;5057098;28;20200;-74
2022/08/11 04:35:31;;;;;;;7.37;6.33;;;;;;;-141.28;100.00;45509.13;5054831;28;20220;-75
2022/08/11 04:38:32;;;;;;;9.57;7.30;;;;;;;-141.28;100.00;45536.56;5054118;28;20659;-76
2022/08/11 04:41:25;;;;;;;9.00;7.00;;;;;;;-141.28;100.00;45571.84;5043396;28;20262;-76
2022/08/11 04:44:34;;;;;;;7.23;6.53;;;;;;;-141.28;100.00;45583.63;5053837;28;20260;-74
2022/08/11 05:03:21;;;;;;;10.20;6.97;;;;;;;-141.28;100.00;45669.84;5075098;28;20337;-73
2022/08/11 05:06:18;;;;;;;11.97;6.87;;;;;;;-141.28;100.00;45718.84;5079873;28;20524;-75
2022/08/11 05:09:19;;;;;;;7.67;5.80;;;;;;;-141.28;100.00;45671.81;5073502;28;20204;-74
2022/08/11 05:12:18;;;;;;;7.33;6.13;;;;;;;-141.28;100.00;45685.53;5072524;28;20655;-75
2022/08/11 05:35:06;;;;;;;12.20;6.67;;;;;;;-141.28;100.00;45673.78;5060220;28;20295;-75
2022/08/11 05:37:38;;;;;;;9.53;7.00;;;;;;;-141.28;100.00;45673.78;5039917;28;20228;-74
2022/08/11 05:57:07;;;;;;;10.37;5.53;;;;;;;-141.28;100.00;45681.63;5041757;28;20262;-74
2022/08/11 05:59:37;;;;;;;10.40;6.60;;;;;;;-141.28;100.00;45677.69;5053733;28;20209;-75
2022/08/11 06:02:08;;;;;;;9.87;5.97;;;;;;;-141.28;100.00;45683.56;5053816;28;20197;-76
2022/08/11 06:04:37;;;;;;;7.03;5.90;;;;;;;-141.28;100.00;45673.78;5053423;28;20220;-75
2022/08/11 06:07:09;;;;;;;7.93;6.37;;;;;;;-141.28;100.00;45677.69;5053138;28;20220;-75
2022/08/11 06:09:42;;;;;;;7.87;5.73;;;;;;;-141.28;100.00;45677.69;5065722;28;20196;-73
2022/08/11 06:12:25;;;;;;;10.90;5.83;;;;;;;-141.28;100.00;45638.50;5063243;28;20197;-75
2022/08/11 06:14:59;;;;;;;6.87;6.07;;;;;;;-141.28;100.00;45601.25;5052715;28;20196;-75
2022/08/11 06:17:30;;;;;;;6.93;6.03;;;;;;;-141.28;100.00;45646.34;5045490;28;20672;-75
2022/08/11 06:20:00;;;;;;;7.60;5.43;;;;;;;-141.28;100.00;45642.41;5072643;28;20620;-75
2022/08/11 06:22:28;;;;;;;9.40;5.97;;;;;;;-141.28;100.00;45589.50;5071841;28;20188;-76
2022/08/11 06:24:59;;;;;;;8.50;5.83;;;;;;;-141.28;100.00;45609.09;5070833;28;20200;-76
2022/08/11 06:27:29;;;;;;;6.50;5.30;;;;;;;-141.28;100.00;45601.25;5071289;28;20251;-77
2022/08/11 06:29:58;;;;;;;6.97;6.27;;;;;;;-141.28;100.00;45591.44;5070245;28;20227;-75
2022/08/11 06:32:28;;;;;;;11.50;5.97;;;;;;;-141.28;100.00;45603.22;5054291;28;20198;-75
2022/08/11 06:35:10;;;;;;;10.63;5.87;;;;;;;-141.28;100.00;45595.38;5052107;28;20201;-75
2022/08/11 06:38:01;;;;;;;8.60;5.97;;;;;;;-141.28;100.00;45609.09;5040043;28;20539;-78
2022/08/11 06:40:37;;;;;;;9.07;5.90;;;;;;;-141.28;100.00;45599.28;5052879;28;20237;-74
2022/08/11 06:43:15;;;;;;;5.60;5.00;;;;;;;-141.28;100.00;45599.28;5052334;28;20257;-76
2022/08/11 06:45:53;;;;;;;10.13;5.80;;;;;;;-141.28;100.00;45603.22;5045594;28;20200;-74
2022/08/11 06:48:24;;;;;;;6.60;5.20;;;;;;;-141.28;100.00;45593.41;5057977;28;20271;-73
2022/08/11 06:51:13;;;;;;;5.90;4.97;;;;;;;-141.28;100.00;45671.81;5051909;28;20206;-76
2022/08/11 06:53:45;;;;;;;6.90;4.80;;;;;;;-141.28;100.00;45669.84;5051940;28;20195;-75
2022/08/11 07:01:57;;;;;;;7.20;4.63;;;;;;;-141.28;100.00;45673.78;5057330;28;20276;-75
2022/08/11 07:04:31;;;;;;;7.80;5.20;;;;;;;-141.28;100.00;45665.94;5073669;28;20663;-76
2022/08/11 07:16:09;;;;;;;5.40;4.50;;;;;;;-141.28;100.00;45738.47;5070488;28;20255;-76
2022/08/11 07:29:57;;;;;;;5.87;4.47;;;;;;;-141.28;100.00;45858.03;5075838;28;20231;-74
2022/08/11 07:32:29;;;;;;;6.47;4.23;;;;;;;-141.28;100.00;45850.19;5058589;28;20200;-76
2022/08/11 07:35:02;;;;;;;8.37;4.07;;;;;;;-141.28;100.00;45822.75;5056340;28;20197;-76
2022/08/11 07:37:33;;;;;;;8.47;4.30;;;;;;;-141.28;100.00;45879.59;5042941;28;20197;-74
2022/08/11 07:40:03;;;;;;;7.77;4.67;;;;;;;-141.28;100.00;45850.19;5056785;28;20219;-78
2022/08/11 07:42:34;;;;;;;5.87;3.97;;;;;;;-141.28;100.00;45873.72;5075259;28;20199;-76
2022/08/11 07:53:30;;;;;;;3.97;3.50;;;;;;;-141.28;100.00;46073.66;5073873;28;20200;-75
2022/08/11 07:56:01;;;;;;;5.60;4.30;;;;;;;-141.28;100.00;46146.19;5074307;28;20196;-76
2022/08/11 08:17:59;;;;;;;7.97;3.60;;;;;;;-141.28;100.00;46669.66;5055081;28;20215;-75
2022/08/11 08:20:30;;;;;;;3.97;3.53;;;;;;;-141.28;100.00;46816.69;5067071;28;20208;-76
2022/08/11 08:23:07;;;;;;;7.10;3.53;;;;;;;-141.28;100.00;47202.97;5074144;28;20207;-75
2022/08/11 08:25:38;;;;;;;6.57;3.80;;;;;;;-141.28;100.00;47536.38;5074261;28;20647;-76
2022/08/11 08:28:16;;;;;;;4.83;3.73;;;;;;;-141.28;100.00;47944.31;5073611;28;20249;-77
2022/08/11 08:30:49;;;;;;;4.10;3.80;;;;;;;-141.28;100.00;48238.53;5070554;28;20276;-74
2022/08/11 08:33:36;;;;;;;3.63;3.33;;;;;;;-141.28;100.00;48273.84;5068414;28;20200;-77
2022/08/11 08:36:14;;;;;;;6.63;4.37;;;;;;;-141.28;100.00;48403.31;5073362;28;20200;-80
2022/08/11 08:38:51;;;;;;;6.10;4.20;;;;;;;-141.28;100.00;48691.69;5073354;28;20200;-77
2022/08/11 08:41:21;;;;;;;7.57;3.90;;;;;;;-141.28;100.00;48956.53;5073794;28;20200;-75
2022/08/11 08:43:56;;;;;;;4.67;3.57;;;;;;;-141.28;100.00;49127.25;5074471;28;20236;-75
2022/08/11 08:46:31;;;;;;;9.10;4.20;;;;;;;-141.28;100.00;49056.59;5071987;28;20287;-75
2022/08/11 08:49:01;;;;;;;8.67;4.27;;;;;;;-141.28;100.00;49164.53;5054546;28;20221;-73
2022/08/11 08:51:36;;;;;;;3.93;3.63;;;;;;;-141.28;100.00;49254.78;5054296;28;20598;-75
2022/08/11 08:54:08;;;;;;;4.00;3.70;;;;;;;-141.28;100.00;49266.56;5048989;28;20215;-77
2022/08/11 08:56:39;;;;;;;5.50;3.70;;;;;;;-141.28;100.00;49272.44;5059735;28;20205;-76
2022/08/11 08:59:11;;;;;;;3.93;3.53;;;;;;;-141.28;100.00;49174.34;5074860;28;20313;-75
2022/08/11 09:01:46;;;;;;;5.57;4.23;;;;;;;-141.28;100.00;49068.38;5074556;28;20200;-75
2022/08/11 09:04:17;;;;;;;8.47;3.90;;;;;;;-141.28;100.00;48931.03;5073360;28;20215;-77
2022/08/11 09:06:49;;;;;;;11.00;4.30;;;;;;;-141.28;100.00;49319.53;5072487;28;20685;-75
2022/08/11 09:09:18;;;;;;;7.63;3.73;;;;;;;-141.28;100.00;49246.94;5072632;28;20589;-74
2022/08/11 09:11:52;;;;;;;4.73;3.63;;;;;;;-141.28;100.00;49105.66;5073299;28;20201;-75
2022/08/11 09:14:20;;;;;;;6.27;3.70;;;;;;;-141.28;100.00;49007.56;5072092;28;20194;-75
2022/08/11 09:16:49;;;;;;;5.33;3.67;;;;;;;-141.28;100.00;48940.84;5072411;28;20646;-75
2022/08/11 09:19:19;;;;;;;4.37;3.70;;;;;;;-141.28;100.00;48925.16;5071941;28;20195;-76
2022/08/11 09:26:58;;;;;;;13.20;4.77;;;;;;;-141.28;100.00;48885.91;5072812;28;20202;-74
2022/08/11 09:27:26;;;;;;;7.60;4.10;;;;;;;-141.28;100.00;48809.41;5071481;28;20209;-75
2022/08/11 09:30:00;;;;;;;4.07;3.70;;;;;;;-141.28;100.00;48691.69;5072153;28;20224;-75
2022/08/11 09:32:30;;;;;;;6.00;4.13;;;;;;;-141.28;100.00;48783.91;5060244;28;20202;-75
2022/08/11 09:34:58;;;;;;;5.70;4.23;;;;;;;-141.28;100.00;48787.81;5060168;28;20252;-79
2022/08/11 09:40:30;;;;;;;8.07;4.00;;;;;;;-141.28;100.00;48772.13;5066383;28;20217;-75
2022/08/11 09:45:50;;;;;;;4.47;4.00;;;;;;;-141.28;100.00;48768.19;5053290;28;20336;-76
2022/08/11 09:48:17;;;;;;;6.53;4.10;;;;;;;-141.28;100.00;48781.94;5053237;28;20340;-77
2022/08/11 09:50:48;;;;;;;6.57;4.20;;;;;;;-141.28;100.00;48781.94;5051464;28;20205;-76
2022/08/11 09:53:18;;;;;;;7.40;4.50;;;;;;;-141.28;100.00;48819.22;5053328;28;20560;-74
2022/08/11 09:55:47;;;;;;;7.50;4.07;;;;;;;-141.28;100.00;48852.56;5053150;28;20644;-76
2022/08/11 09:58:16;;;;;;;6.03;4.27;;;;;;;-141.28;100.00;48882.00;5053406;28;20209;-75
2022/08/11 10:00:45;;;;;;;9.50;3.90;;;;;;;-141.28;100.00;48913.38;5051652;28;20267;-75
2022/08/11 10:03:15;;;;;;;6.77;4.20;;;;;;;-141.28;100.00;49031.09;5052536;28;20560;-74
2022/08/11 10:08:32;;;;;;;7.37;4.50;;;;;;;-141.28;100.00;49250.84;5042215;28;20251;-74
2022/08/11 10:11:02;;;;;;;4.43;3.90;;;;;;;-141.28;100.00;49093.88;5052965;28;20312;-76
2022/08/11 10:15:32;;;;;;;6.07;4.20;;;;;;;-141.28;100.00;48972.25;5052852;28;20202;-74
2022/08/11 10:16:25;;;;;;;5.47;3.80;;;;;;;-141.28;100.00;48889.84;5052657;28;20544;-77
2022/08/11 10:18:55;;;;;;;6.70;3.90;;;;;;;-141.28;100.00;48850.59;5053608;28;20208;-75
2022/08/11 10:21:29;;;;;;;4.97;4.07;;;;;;;-141.28;100.00;48842.75;5052630;28;20199;-75
2022/08/11 10:26:54;;;;;;;4.80;4.30;;;;;;;-141.28;100.00;49066.41;5052494;28;20209;-74
2022/08/11 10:34:57;;;;;;;6.20;4.70;;;;;;;-141.28;100.00;49019.31;5071784;28;20246;-76
2022/08/11 10:37:35;;;;;;;5.33;4.50;;;;;;;-141.28;100.00;48901.59;5070884;28;20747;-75
2022/08/11 10:40:07;;;;;;;6.33;4.93;;;;;;;-141.28;100.00;49078.19;5071889;28;20196;-77
2022/08/11 10:48:10;;;;;;;6.00;4.80;;;;;;;-141.28;100.00;49031.09;5065865;28;20224;-76
2022/08/11 10:58:58;;;;;;;6.17;4.10;;;;;;;-141.28;100.00;48783.91;5041338;28;20213;-75
2022/08/11 11:01:27;;;;;;;9.30;4.17;;;;;;;-141.28;100.00;48764.28;5051721;28;20231;-74
2022/08/11 11:03:58;;;;;;;4.67;4.13;;;;;;;-141.28;100.00;48781.94;5051860;28;20209;-75
2022/08/11 11:06:33;;;;;;;4.17;3.80;;;;;;;-141.28;100.00;48744.66;5051916;28;20208;-76
2022/08/11 11:09:05;;;;;;;4.13;3.77;;;;;;;-141.28;100.00;48732.88;5052366;28;20224;-76
2022/08/11 11:20:00;;;;;;;5.43;4.40;;;;;;;-141.28;100.00;48758.38;5052318;28;20588;-76
2022/08/11 11:22:38;;;;;;;5.60;4.50;;;;;;;-141.28;100.00;48827.06;5051435;28;20193;-76
2022/08/11 11:25:22;;;;;;;8.43;4.10;;;;;;;-141.28;100.00;48734.84;5051792;28;20205;-77
2022/08/11 11:28:03;;;;;;;5.53;4.47;;;;;;;-141.28;100.00;48664.22;5051539;28;20203;-75
2022/08/11 11:30:43;;;;;;;6.37;4.47;;;;;;;-141.28;100.00;48787.81;5056501;28;20208;-74
2022/08/11 11:33:18;;;;;;;4.97;4.50;;;;;;;-141.28;100.00;48897.69;5070515;28;20204;-75
2022/08/11 11:36:01;;;;;;;7.50;4.23;;;;;;;-141.28;100.00;48987.94;5067629;28;20582;-77
2022/08/11 11:38:29;;;;;;;10.27;3.87;;;;;;;-141.28;100.00;49152.75;5051392;28;20214;-73
2022/08/11 11:43:45;;;;;;;6.10;3.07;;;;;;;-141.28;100.00;49146.84;5047383;28;20595;-74
2022/08/11 11:46:14;;;;;;;4.57;3.90;;;;;;;-141.28;100.00;49160.59;5051506;28;20248;-75
2022/08/11 11:48:42;;;;;;;5.33;3.70;;;;;;;-141.28;100.00;49203.75;5051623;28;20217;-75
2022/08/11 11:51:12;;;;;;;7.90;4.00;;;;;;;-141.28;100.00;49231.22;5051571;28;20197;-75
2022/08/11 11:53:42;;;;;;;4.80;3.53;;;;;;;-141.28;100.00;49223.38;5051529;28;20200;-77
2022/08/11 11:56:10;;;;;;;4.07;3.53;;;;;;;-141.28;100.00;49192.00;5051999;28;20206;-77
2022/08/11 12:01:27;;;;;;;4.13;3.57;;;;;;;-141.28;100.00;48954.59;5069904;28;20227;-77
2022/08/11 12:03:56;;;;;;;4.03;3.50;;;;;;;-141.28;100.00;48850.59;5070239;28;20226;-75
2022/08/11 12:06:24;;;;;;;5.80;3.47;;;;;;;-141.28;100.00;49001.66;5059155;28;20578;-75
2022/08/11 12:08:56;;;;;;;4.20;3.80;;;;;;;-141.28;100.00;48830.97;5068425;28;20736;-76
2022/08/11 12:14:11;;;;;;;4.77;4.10;;;;;;;-141.28;100.00;48830.97;5071960;28;20203;-76
2022/08/11 12:16:43;;;;;;;5.10;3.60;;;;;;;-141.28;100.00;48764.28;5073978;28;20208;-77
2022/08/11 12:19:13;;;;;;;3.37;3.07;;;;;;;-141.28;100.00;48785.84;5073337;28;20200;-77
2022/08/11 12:27:19;;;;;;;5.57;3.53;;;;;;;-141.28;100.00;48791.75;5074336;28;20214;-77
2022/08/11 12:27:23;;;;;;;5.20;3.60;;;;;;;-141.28;100.00;48742.69;5074414;28;20212;-75
2022/08/11 12:29:52;;;;;;;6.03;3.50;;;;;;;-141.28;100.00;48752.50;5074042;28;20267;-76
2022/08/11 12:32:23;;;;;;;6.67;4.03;;;;;;;-141.28;100.00;48819.22;5057610;28;20193;-77
2022/08/11 12:34:50;;;;;;;10.67;3.70;;;;;;;-141.28;100.00;48936.91;5066134;28;20211;-77
2022/08/11 12:37:23;;;;;;;6.27;3.53;;;;;;;-141.28;100.00;48972.25;5055471;28;20204;-75
2022/08/11 12:45:30;;;;;;;7.50;3.57;;;;;;;-141.28;100.00;49160.59;5073504;28;20212;-74
2022/08/11 12:53:59;;;;;;;8.63;3.90;;;;;;;-141.28;100.00;49060.53;5067623;28;20205;-75
2022/08/11 13:04:54;;;;;;;11.00;4.03;;;;;;;-141.28;100.00;49162.56;5061804;28;20255;-75
2022/08/11 13:07:23;;;;;;;5.57;3.40;;;;;;;-141.28;100.00;49541.25;5061062;28;20630;-76
2022/08/11 13:09:51;;;;;;;4.03;3.60;;;;;;;-141.28;100.00;48721.13;5053735;28;20230;-74
2022/08/11 13:15:03;;;;;;;7.63;3.60;;;;;;;-141.28;100.00;48346.41;5054215;28;20207;-75
2022/08/11 13:17:33;;;;;;;5.97;3.40;;;;;;;-141.28;100.00;48422.94;5054345;28;20209;-75
2022/08/11 13:20:03;;;;;;;9.53;3.73;;;;;;;-141.28;100.00;48183.59;5060205;28;20648;-77
2022/08/11 13:22:31;;;;;;;5.13;3.43;;;;;;;-141.28;100.00;48283.66;5058479;28;20208;-75
2022/08/11 13:24:58;;;;;;;6.10;3.47;;;;;;;-141.28;100.00;48501.41;5053343;28;20199;-75
2022/08/11 13:27:26;;;;;;;4.43;3.40;;;;;;;-141.28;100.00;48705.41;5062889;28;20200;-75
2022/08/11 13:31:09;;;;;;;5.53;3.37;;;;;;;-141.28;100.00;48766.22;5056920;28;20302;-74
2022/08/11 13:32:44;;;;;;;3.93;3.00;;;;;;;-141.28;100.00;48968.31;5064716;28;20228;-74
2022/08/11 13:35:20;;;;;;;3.57;3.23;;;;;;;-141.28;100.00;49058.56;5073157;28;20197;-79
2022/08/11 13:37:50;;;;;;;3.97;3.00;;;;;;;-141.28;100.00;49148.81;5072454;28;20192;-76
2022/08/11 13:40:20;;;;;;;4.83;3.20;;;;;;;-141.28;100.00;49093.88;5073024;28;20655;-74
2022/08/11 13:42:49;;;;;;;4.17;3.37;;;;;;;-141.28;100.00;49168.44;5057810;28;20200;-75
2022/08/11 13:45:17;;;;;;;5.40;3.23;;;;;;;-141.28;100.00;48960.47;5053814;28;20209;-76
2022/08/11 13:47:45;;;;;;;4.20;3.30;;;;;;;-141.28;100.00;48948.69;5052983;28;20214;-74
2022/08/11 13:50:15;;;;;;;5.00;3.13;;;;;;;-141.28;100.00;48909.47;5052619;28;20220;-76
2022/08/11 13:52:43;;;;;;;9.80;2.97;;;;;;;-141.28;100.00;48850.59;5053136;28;20226;-75
2022/08/11 13:55:20;;;;;;;4.63;3.00;;;;;;;-141.28;100.00;48689.72;5053157;28;20289;-76
2022/08/11 13:57:52;;;;;;;5.10;2.87;;;;;;;-141.28;100.00;48807.44;5053234;28;20641;-77
2022/08/11 14:00:21;;;;;;;4.23;3.00;;;;;;;-141.28;100.00;48774.09;5052745;28;20215;-74
2022/08/11 14:02:51;;;;;;;5.60;3.03;;;;;;;-141.28;98.03;48750.53;5064808;28;20214;-75
2022/08/11 14:05:27;;;;;;;8.00;3.30;;;;;;;-141.28;100.00;48797.63;5066280;28;20199;-75
2022/08/11 14:08:01;;;;;;;3.20;2.90;;;;;;;-141.28;100.00;48760.34;5052690;28;20655;-75
2022/08/11 14:10:33;;;;;;;5.57;3.00;;;;;;;-141.28;100.00;48791.75;5054096;28;20227;-75
2022/08/11 14:15:50;;;;;;;3.63;2.87;;;;;;;-141.28;100.00;48768.19;5053756;28;20208;-76
2022/08/11 14:18:20;;;;;;;3.20;2.90;;;;;;;-141.28;100.00;48815.28;5064444;28;20306;-74
2022/08/11 14:23:41;;;;;;;3.13;2.90;;;;;;;-141.28;92.47;48744.66;5058514;28;20223;-75
2022/08/11 14:26:30;;;;;;;4.13;2.70;;;;;;;-141.28;90.17;48756.44;5072298;28;20226;-76
2022/08/11 14:29:01;;;;;;;4.43;2.90;;;;;;;-141.28;89.64;48760.34;5070800;28;20285;-76
2022/08/11 14:31:32;;;;;;;6.13;3.00;;;;;;;-141.28;100.00;48785.84;5061013;28;20197;-77
2022/08/11 14:34:03;;;;;;;3.37;3.07;;;;;;;-141.28;100.00;48827.06;5069665;28;20209;-74
2022/08/11 14:36:37;;;;;;;5.73;3.00;;;;;;;-141.28;100.00;48791.75;5072583;28;20300;-77
2022/08/11 14:39:11;;;;;;;8.03;3.17;;;;;;;-141.28;97.53;49203.75;5044773;28;20258;-76
2022/08/11 14:47:13;;;;;;;5.93;3.00;;;;;;;-141.28;99.50;48768.19;5057389;28;20351;-75
2022/08/11 14:49:41;;;;;;;3.53;3.00;;;;;;;-141.28;100.00;48787.81;5052107;28;20227;-76
2022/08/11 14:52:17;;;;;;;4.23;3.20;;;;;;;-141.28;100.00;48803.50;5045670;28;20207;-74
2022/08/11 14:57:35;;;;;;;3.60;3.30;;;;;;;-141.28;100.00;48862.38;5071112;28;20673;-75
2022/08/11 15:00:07;;;;;;;6.40;3.57;;;;;;;-141.28;100.00;48882.00;5065821;28;20195;-74
2022/08/11 15:05:22;;;;;;;5.07;3.20;;;;;;;-141.28;100.00;49086.03;5041100;28;20661;-75
2022/08/11 15:07:51;;;;;;;4.33;3.97;;;;;;;-141.28;100.00;48903.56;5051902;28;21145;-75
2022/08/11 15:10:19;;;;;;;3.97;3.67;;;;;;;-141.28;100.00;48901.59;5051916;28;20237;-76
2022/08/11 15:12:48;;;;;;;5.27;3.70;;;;;;;-141.28;100.00;48846.69;5051682;28;20577;-77
2022/08/11 15:18:07;;;;;;;7.10;6.00;;;;;;;-141.28;100.00;49019.31;5071106;28;20208;-76
2022/08/11 15:26:09;;;;;;;4.37;3.97;;;;;;;-141.28;100.00;49584.44;5051570;28;20220;-75
2022/08/11 15:37:30;;;;;;;3.77;3.37;;;;;;;-141.28;100.00;49184.13;5061540;28;20239;-80
2022/08/11 15:45:51;;;;;;;3.57;3.27;;;;;;;-141.28;100.00;48744.66;5069437;28;20221;-75
2022/08/11 15:48:27;;;;;;;5.10;3.13;;;;;;;-141.28;100.00;48982.03;5065964;28;20597;-74
2022/08/11 15:51:03;;;;;;;4.67;3.50;;;;;;;-141.28;100.00;49080.16;5057008;28;20217;-77
2022/08/11 15:53:34;;;;;;;4.47;3.50;;;;;;;-141.28;100.00;49158.63;5068012;28;20268;-75
2022/08/11 15:56:06;;;;;;;4.80;3.30;;;;;;;-141.28;100.00;49062.50;5055059;28;20197;-75
2022/08/11 16:04:16;;;;;;;6.13;3.60;;;;;;;-141.28;100.00;48650.50;5073297;28;20296;-76
2022/08/11 16:06:49;;;;;;;4.67;3.40;;;;;;;-141.28;100.00;48466.09;5054547;28;20675;-74
2022/08/11 16:09:27;;;;;;;4.73;3.10;;;;;;;-141.28;100.00;48454.31;5058087;28;20200;-76
2022/08/11 16:12:00;;;;;;;3.43;3.13;;;;;;;-141.28;100.00;48358.19;5062897;28;20291;-75
2022/08/11 16:17:18;;;;;;;5.27;3.33;;;;;;;-141.28;100.00;48234.59;5060638;28;20338;-76
2022/08/11 16:19:49;;;;;;;5.37;2.97;;;;;;;-141.28;100.00;48187.53;5074217;28;20208;-74